Dai Shan Hai — 3FDE6 — position and weather

sailwx.info

Track history (hours):
 
Tides and Currents Weather Stations Pressure Air Temp Water Temp Dewpoint Dewpoint Depression Visibility Wind Speed Wind Dir Waves Ship Positions

Dai Shan Hai

Last reported at 2017-Sep-19 20:35 UTC. Time now 2017-Sep-23 07:27 UTC.
Position N 40°57' E 028°37'.

Length 190 m; draft 9.5 m.

Type: Cargo ship. MMSI: 371911000.

Date/timePositionNaut miles runAvg speedWind from/ knotsBaromVisibWave heightAir tempDewpointWater temp
2017-Sep-19 20:35N 40°57' E 028°37'1 0.0
2017-Sep-19 00:48N 40°57' E 028°36'0 0.1
2017-Sep-19 00:30N 40°57' E 028°36'0 0.1
2017-Sep-18 23:57N 40°57' E 028°36'0 0.1
2017-Sep-18 23:09N 40°57' E 028°36'0 0.0
2017-Sep-18 22:57N 40°57' E 028°36'0 0.0
2017-Sep-18 21:21N 40°57' E 028°36'0 0.1
2017-Sep-18 21:00N 40°57' E 028°36'0 0.1
2017-Sep-18 20:30N 40°57' E 028°36'0 0.1
2017-Sep-18 20:00N 40°57' E 028°36'0 0.0
2017-Sep-18 19:30N 40°57' E 028°36'0 0.0
2017-Sep-18 18:57N 40°57' E 028°36'0 0.0
2017-Sep-18 18:30N 40°57' E 028°36'0 0.0
2017-Sep-18 17:57N 40°57' E 028°36'0 0.1
2017-Sep-18 17:27N 40°57' E 028°36'0 0.1
2017-Sep-18 17:00N 40°57' E 028°36'0 0.0
2017-Sep-18 16:30N 40°57' E 028°36'0 0.0
2017-Sep-18 16:00N 40°57' E 028°36'12 1.0
2017-Sep-18 03:41N 40°48' E 028°25'312.7
2017-Sep-18 03:25N 40°48' E 028°20'2312.6
2017-Sep-18 01:37N 40°45' E 027°51'111.9
2017-Sep-18 01:30N 40°44' E 027°49'1812.4
2017-Sep-18 00:03N 40°40' E 027°26'412.6
2017-Sep-17 23:47N 40°38' E 027°22'612.5
2017-Sep-17 23:18N 40°36' E 027°15'412.6
2017-Sep-17 23:00N 40°34' E 027°10'612.5
2017-Sep-17 22:30N 40°31' E 027°03'612.4
2017-Sep-17 22:00N 40°29' E 026°55'612.1
2017-Sep-17 21:29N 40°26' E 026°48'511.3
2017-Sep-17 21:00N 40°24' E 026°42'5 9.9
2017-Sep-17 20:28N 40°20' E 026°37'611.2
2017-Sep-17 19:58N 40°16' E 026°32'811.2
2017-Sep-17 19:16N 40°12' E 026°23'11 8.8
2017-Sep-17 18:04N 40°02' E 026°17'111.9
2017-Sep-17 18:00N 40°02' E 026°16'5 9.4
2017-Sep-17 17:30N 40°01' E 026°10'3 5.2
2017-Sep-17 17:00N 39°59' E 026°08'610.0
2017-Sep-17 16:26N 39°53' E 026°09'0 0.9
2017-Sep-17 15:57N 39°53' E 026°09'0 0.0
2017-Sep-17 15:24N 39°53' E 026°09'0 0.0
2017-Sep-17 14:36N 39°53' E 026°09'0 0.1
2017-Sep-17 14:30N 39°53' E 026°09'0 0.0
2017-Sep-17 14:00N 39°53' E 026°09'0 0.0
2017-Sep-17 13:30N 39°53' E 026°09'0 0.0
2017-Sep-17 13:00N 39°53' E 026°09'0 0.0
2017-Sep-17 12:30N 39°53' E 026°09'0 0.0
2017-Sep-17 09:57N 39°53' E 026°09'0 0.0
2017-Sep-17 09:30N 39°53' E 026°09'0 0.0
2017-Sep-17 08:51N 39°53' E 026°09'0 0.0
2017-Sep-17 08:27N 39°53' E 026°09'0 0.0
2017-Sep-17 07:03N 39°53' E 026°09'0 0.0
2017-Sep-17 06:03N 39°53' E 026°09'0 0.0
2017-Sep-17 05:51N 39°53' E 026°09'0 0.0
2017-Sep-17 05:30N 39°53' E 026°09'0 0.0
2017-Sep-17 04:54N 39°53' E 026°09'0 0.0
2017-Sep-17 04:18N 39°53' E 026°09'0 0.0
2017-Sep-17 04:00N 39°53' E 026°09'0 0.0
2017-Sep-17 03:30N 39°53' E 026°09'0 0.0
2017-Sep-17 03:00N 39°53' E 026°09'0 0.0
2017-Sep-17 02:30N 39°53' E 026°09'0 0.0
2017-Sep-17 00:12N 39°53' E 026°09'  
2017-Sep-11 19:40N 39°54' E 025°58'211.1
2017-Sep-11 19:27N 39°53' E 025°55'511.1
2017-Sep-11 18:58N 39°49' E 025°50'511.6
2017-Sep-11 18:31N 39°45' E 025°46'3412.6
2017-Sep-11 15:50N 39°14' E 025°27'812.6
2017-Sep-11 15:12N 39°07' E 025°22'312.7
2017-Sep-11 15:00N 39°05' E 025°21'612.6
2017-Sep-11 14:30N 38°59' E 025°18'812.6
2017-Sep-11 13:53N 38°52' E 025°14'812.9
2017-Sep-11 13:15N 38°45' E 025°09'3612.7
2017-Sep-11 10:26N 38°13' E 024°48'10512.2
2017-Sep-11 01:47N 36°43' E 023°38'312.0
2017-Sep-11 01:30N 36°41' E 023°35'812.0
2017-Sep-11 00:52N 36°35' E 023°29'612.5
2017-Sep-11 00:23N 36°31' E 023°23'  
Track history (hours):
 
Tides and Currents Weather Stations Pressure Air Temp Water Temp Dewpoint Dewpoint Depression Visibility Wind Speed Wind Dir Waves Ship Positions

Dai Shan Hai

Last reported at 2017-Sep-19 20:35 UTC. Time now 2017-Sep-23 07:27 UTC.
Position N 40°57' E 028°37'.

Length 190 m; draft 9.5 m.

Type: Cargo ship. MMSI: 371911000.

Date/timePositionNaut miles runAvg speedWind from/ knotsBaromVisibWave heightAir tempDewpointWater temp
2017-Sep-19 20:35N 40°57' E 028°37'1 0.0
2017-Sep-19 00:48N 40°57' E 028°36'0 0.1
2017-Sep-19 00:30N 40°57' E 028°36'0 0.1
2017-Sep-18 23:57N 40°57' E 028°36'0 0.1
2017-Sep-18 23:09N 40°57' E 028°36'0 0.0
2017-Sep-18 22:57N 40°57' E 028°36'0 0.0
2017-Sep-18 21:21N 40°57' E 028°36'0 0.1
2017-Sep-18 21:00N 40°57' E 028°36'0 0.1
2017-Sep-18 20:30N 40°57' E 028°36'0 0.1
2017-Sep-18 20:00N 40°57' E 028°36'0 0.0
2017-Sep-18 19:30N 40°57' E 028°36'0 0.0
2017-Sep-18 18:57N 40°57' E 028°36'0 0.0
2017-Sep-18 18:30N 40°57' E 028°36'0 0.0
2017-Sep-18 17:57N 40°57' E 028°36'0 0.1
2017-Sep-18 17:27N 40°57' E 028°36'0 0.1
2017-Sep-18 17:00N 40°57' E 028°36'0 0.0
2017-Sep-18 16:30N 40°57' E 028°36'0 0.0
2017-Sep-18 16:00N 40°57' E 028°36'12 1.0
2017-Sep-18 03:41N 40°48' E 028°25'312.7
2017-Sep-18 03:25N 40°48' E 028°20'2312.6
2017-Sep-18 01:37N 40°45' E 027°51'111.9
2017-Sep-18 01:30N 40°44' E 027°49'1812.4
2017-Sep-18 00:03N 40°40' E 027°26'412.6
2017-Sep-17 23:47N 40°38' E 027°22'612.5
2017-Sep-17 23:18N 40°36' E 027°15'412.6
2017-Sep-17 23:00N 40°34' E 027°10'612.5
2017-Sep-17 22:30N 40°31' E 027°03'612.4
2017-Sep-17 22:00N 40°29' E 026°55'612.1
2017-Sep-17 21:29N 40°26' E 026°48'511.3
2017-Sep-17 21:00N 40°24' E 026°42'5 9.9
2017-Sep-17 20:28N 40°20' E 026°37'611.2
2017-Sep-17 19:58N 40°16' E 026°32'811.2
2017-Sep-17 19:16N 40°12' E 026°23'11 8.8
2017-Sep-17 18:04N 40°02' E 026°17'111.9
2017-Sep-17 18:00N 40°02' E 026°16'5 9.4
2017-Sep-17 17:30N 40°01' E 026°10'3 5.2
2017-Sep-17 17:00N 39°59' E 026°08'610.0
2017-Sep-17 16:26N 39°53' E 026°09'0 0.9
2017-Sep-17 15:57N 39°53' E 026°09'0 0.0
2017-Sep-17 15:24N 39°53' E 026°09'0 0.0
2017-Sep-17 14:36N 39°53' E 026°09'0 0.1
2017-Sep-17 14:30N 39°53' E 026°09'0 0.0
2017-Sep-17 14:00N 39°53' E 026°09'0 0.0
2017-Sep-17 13:30N 39°53' E 026°09'0 0.0
2017-Sep-17 13:00N 39°53' E 026°09'0 0.0
2017-Sep-17 12:30N 39°53' E 026°09'0 0.0
2017-Sep-17 09:57N 39°53' E 026°09'0 0.0
2017-Sep-17 09:30N 39°53' E 026°09'0 0.0
2017-Sep-17 08:51N 39°53' E 026°09'0 0.0
2017-Sep-17 08:27N 39°53' E 026°09'0 0.0
2017-Sep-17 07:03N 39°53' E 026°09'0 0.0
2017-Sep-17 06:03N 39°53' E 026°09'0 0.0
2017-Sep-17 05:51N 39°53' E 026°09'0 0.0
2017-Sep-17 05:30N 39°53' E 026°09'0 0.0
2017-Sep-17 04:54N 39°53' E 026°09'0 0.0
2017-Sep-17 04:18N 39°53' E 026°09'0 0.0
2017-Sep-17 04:00N 39°53' E 026°09'0 0.0
2017-Sep-17 03:30N 39°53' E 026°09'0 0.0
2017-Sep-17 03:00N 39°53' E 026°09'0 0.0
2017-Sep-17 02:30N 39°53' E 026°09'0 0.0
2017-Sep-17 00:12N 39°53' E 026°09'  
2017-Sep-11 19:40N 39°54' E 025°58'211.1
2017-Sep-11 19:27N 39°53' E 025°55'511.1
2017-Sep-11 18:58N 39°49' E 025°50'511.6
2017-Sep-11 18:31N 39°45' E 025°46'3412.6
2017-Sep-11 15:50N 39°14' E 025°27'812.6
2017-Sep-11 15:12N 39°07' E 025°22'312.7
2017-Sep-11 15:00N 39°05' E 025°21'612.6
2017-Sep-11 14:30N 38°59' E 025°18'812.6
2017-Sep-11 13:53N 38°52' E 025°14'812.9
2017-Sep-11 13:15N 38°45' E 025°09'3612.7
2017-Sep-11 10:26N 38°13' E 024°48'10512.2
2017-Sep-11 01:47N 36°43' E 023°38'312.0
2017-Sep-11 01:30N 36°41' E 023°35'812.0
2017-Sep-11 00:52N 36°35' E 023°29'612.5
2017-Sep-11 00:23N 36°31' E 023°23'  

Dump ship's entire track history